FMNNFMMI

Guest
Details From FMNN - FASCENE
To FMMI - IVATO
Flight Number -
Tags generated
Created
Modified
Stats Distance 333 nm / 617 km
Max Altitude 0 ft / 0 m
Waypoints 2
Social Downloads 1
Likes 0
Share VATSIM

Download

Looking for another format? Having issues loading an existing format? Contact us
Advertisement - Login to hide

Notes

Basic altitude profile: - Ascent Rate: 2500ft/min - Ascent Speed: 250kts - Cruise Altitude: 35000ft - Cruise Speed: 420kts - Descent Rate: 1500ft/min - Descent Speed: 250kts Options: - Use NATs: no - Use PACOTS: no - Use low airways: no - Use high airways: no

Route

FMNN FMMI

ID Type Via Altitude Latitude Longitude Leg Dist Tot Dist Heading (true) Name
O FMNN APT - 0 ft / 0 m -13.31207˚ 48.31482˚ - 0 nm - FASCENE
O FMMI APT - 0 ft / 0 m -18.79695˚ 47.47881˚ 332 nm 332 nm 188° / 188° IVATO

Altitude Profile

Advertisement - Login to hide

Weather


0- 5 10 15 20 25 30 35+ Temperature / ° C

Clouds and Precipitation
Forecast for 2017-12-13 12:00 UTC. Updated 20 minutes ago

Ground ~20,000 ft ~40,000 ft Winds

FMNN

Details ICAO FMNN (NOS)
Name FASCENE
Region Comoros, Mayotte, Réunion and Madagascar
Timezone Indian/Antananarivo (UTC+3.0)
Stats Elevation 36 ft / 11 m (AMSL)
Location -13.312067° 48.314821°
Runways 1
Magnetic Variation 9.465° W

METAR

FMNN 130900Z 04004KT 9999 SCT020 BKN100 30/23 Q1012

Decode

TAF

Not found

Departure Runways

ID Width Length Bearing (true) Bearing (mag) Surface Threshold Offset Overrun Length
05 148 ft / 45 m 7,220 ft / 2,201 m 42.86° 52.33° Asphalt 0 ft / 0 m 164 ft / 50 m
23 148 ft / 45 m 7,220 ft / 2,201 m 222.85° 232.32° Asphalt 0 ft / 0 m 197 ft / 60 m

FMMI

Details ICAO FMMI (TNR)
Name IVATO
Region Comoros, Mayotte, Réunion and Madagascar
Timezone Indian/Antananarivo (UTC+3.0)
Stats Elevation 4,198 ft / 1,280 m (AMSL)
Location -18.796950° 47.478806°
Runways 1
Magnetic Variation 15.160° W

METAR

FMMI 130930Z 12004KT 030V190 9999 BKN017CB 28/20 Q1020 NOSIG

Decode

TAF

TAF FMMI 122300Z 1300/1406 VRB03KT 9999 FEW007 SCT017 BKN020 BECMG 1307/1310 28010KT PROB40 TEMPO 1310/1322 4000 TSRA BKN015CB SCT020 BECMG 1317/1320 VRB03KT

Decode

Destination Runways

ID Width Length Bearing (true) Bearing (mag) Surface Threshold Offset Overrun Length
11 148 ft / 45 m 10,167 ft / 3,099 m 98.92° 114.08° Asphalt 0 ft / 0 m 90 ft / 27 m
29 148 ft / 45 m 10,167 ft / 3,099 m 278.91° 294.07° Asphalt 0 ft / 0 m 90 ft / 27 m

Approach Navaids

Runway Type Ident Frequency Range Bearing (true) Bearing (mag) Slope Elevation
11 Localiser IO 109.50 MHz 18 nm / 33 km 98.89° 114.05° - 4,125 ft / 1,257 m (AMSL)
11 Glidescope IO 109.50 MHz 10 nm / 19 km 98.91° 114.07° 3.00° 4,198 ft / 1,280 m (AMSL)

Popular Alternatives